createdAt,value
2023-03-04T00:01:14.002Z,5.70
2023-03-04T00:03:42.628Z,5.70
2023-03-04T00:06:12.550Z,5.70
2023-03-04T00:08:41.123Z,5.70
2023-03-04T00:11:09.734Z,5.70
2023-03-04T00:13:38.353Z,5.70
2023-03-04T00:16:07.554Z,5.70
2023-03-04T00:18:36.251Z,5.70
2023-03-04T00:21:05.014Z,5.70
2023-03-04T00:23:35.089Z,5.70
2023-03-04T00:26:03.619Z,5.70
2023-03-04T00:28:32.221Z,5.70
2023-03-04T00:31:01.126Z,5.60
2023-03-04T00:33:29.875Z,5.70
2023-03-04T00:35:58.973Z,5.60
2023-03-04T00:38:27.665Z,5.60
2023-03-04T00:40:57.884Z,5.60
2023-03-04T00:43:26.765Z,5.60
2023-03-04T00:45:55.515Z,5.50
2023-03-04T00:48:24.392Z,5.50
2023-03-04T00:50:54.074Z,5.50
2023-03-04T00:53:24.218Z,5.60
2023-03-04T00:55:53.015Z,5.50
2023-03-04T00:58:23.293Z,5.50
2023-03-04T01:00:52.004Z,5.50
2023-03-04T01:03:21.062Z,5.60
2023-03-04T01:05:49.896Z,5.60
2023-03-04T01:08:18.380Z,5.60
2023-03-04T01:10:48.704Z,5.60
2023-03-04T01:13:17.098Z,5.60
2023-03-04T01:15:47.190Z,5.60
2023-03-04T01:18:15.862Z,5.60
2023-03-04T01:20:44.439Z,5.60
2023-03-04T01:23:12.964Z,5.60
2023-03-04T01:25:41.517Z,5.70
2023-03-04T01:28:10.557Z,5.70
2023-03-04T01:30:39.188Z,5.60
2023-03-04T01:33:09.234Z,5.60
2023-03-04T01:35:38.247Z,5.60
2023-03-04T01:38:06.995Z,5.60
2023-03-04T01:40:35.671Z,5.60
2023-03-04T01:43:08.639Z,5.60
2023-03-04T01:45:40.174Z,5.70
2023-03-04T01:48:15.697Z,5.70
2023-03-04T01:50:44.372Z,5.70
2023-03-04T01:53:21.144Z,5.60
2023-03-04T01:55:50.420Z,5.70
2023-03-04T01:58:19.119Z,5.60
2023-03-04T02:00:47.873Z,5.70
2023-03-04T02:03:21.008Z,5.60
2023-03-04T02:05:52.144Z,5.70
2023-03-04T02:08:22.840Z,5.60
2023-03-04T02:10:53.134Z,5.60
2023-03-04T02:13:21.790Z,5.60
2023-03-04T02:15:50.402Z,5.60
2023-03-04T02:18:22.945Z,5.60
2023-03-04T02:21:02.164Z,5.60
2023-03-04T02:23:37.014Z,5.60
2023-03-04T02:26:16.965Z,5.60
2023-03-04T02:28:46.509Z,5.60
2023-03-04T02:31:25.048Z,5.60
2023-03-04T02:33:54.674Z,5.60
2023-03-04T02:36:26.069Z,5.60
2023-03-04T02:38:56.197Z,5.60
2023-03-04T02:41:30.674Z,5.60
2023-03-04T02:44:01.301Z,5.60
2023-03-04T02:46:30.150Z,5.70
2023-03-04T02:48:58.808Z,5.60
2023-03-04T02:51:27.443Z,5.70
2023-03-04T02:53:56.081Z,5.60
2023-03-04T02:56:26.785Z,5.60
2023-03-04T02:58:55.966Z,5.60
2023-03-04T03:01:24.535Z,5.60
2023-03-04T03:03:53.514Z,5.60
2023-03-04T03:06:24.266Z,5.60
2023-03-04T03:08:52.746Z,5.60
2023-03-04T03:11:21.295Z,5.60
2023-03-04T03:13:51.359Z,5.60
2023-03-04T03:16:20.627Z,5.60
2023-03-04T03:18:51.759Z,5.60
2023-03-04T03:21:20.512Z,5.60
2023-03-04T03:23:49.303Z,5.60
2023-03-04T03:26:18.807Z,5.60
2023-03-04T03:28:47.836Z,5.70
2023-03-04T03:31:18.434Z,5.60
2023-03-04T03:33:48.558Z,5.60
2023-03-04T03:36:17.113Z,5.70
2023-03-04T03:38:45.855Z,5.60
2023-03-04T03:41:14.324Z,5.70
2023-03-04T03:43:42.891Z,5.70
2023-03-04T03:46:11.525Z,5.70
2023-03-04T03:48:41.395Z,5.70
2023-03-04T03:51:10.088Z,5.70
2023-03-04T03:53:38.682Z,5.70
2023-03-04T03:56:08.110Z,5.70
2023-03-04T03:58:36.859Z,5.70
2023-03-04T04:01:06.026Z,5.70
2023-03-04T04:03:34.659Z,5.70
2023-03-04T04:06:04.987Z,5.70
2023-03-04T04:08:33.593Z,5.70
2023-03-04T04:11:02.122Z,5.70
2023-03-04T04:13:30.543Z,5.70
2023-03-04T04:15:59.791Z,5.70
2023-03-04T04:18:28.283Z,5.70
2023-03-04T04:20:57.107Z,5.60
2023-03-04T04:23:27.224Z,5.60
2023-03-04T04:25:56.920Z,5.60
2023-03-04T04:28:26.259Z,5.60
2023-03-04T04:30:54.930Z,5.60
2023-03-04T04:33:23.433Z,5.60
2023-03-04T04:35:51.947Z,5.60
2023-03-04T04:38:20.497Z,5.60
2023-03-04T04:40:50.569Z,5.60
2023-03-04T04:43:19.066Z,5.60
2023-03-04T04:45:48.341Z,5.60
2023-03-04T04:48:16.837Z,5.60
2023-03-04T04:50:45.399Z,5.60
2023-03-04T04:53:14.861Z,5.60
2023-03-04T04:55:45.711Z,5.60
2023-03-04T04:58:15.612Z,5.60
2023-03-04T05:00:44.246Z,5.60
2023-03-04T05:03:12.757Z,5.50
2023-03-04T05:05:43.173Z,5.50
2023-03-04T05:08:11.819Z,5.60
2023-03-04T05:10:40.284Z,5.50
2023-03-04T05:13:08.900Z,5.50
2023-03-04T05:15:39.731Z,5.60
2023-03-04T05:18:08.506Z,5.60
2023-03-04T05:20:37.255Z,5.50
2023-03-04T05:23:08.908Z,5.60
2023-03-04T05:25:37.678Z,5.50
2023-03-04T05:28:07.503Z,5.50
2023-03-04T05:30:36.078Z,5.50
2023-03-04T05:33:06.024Z,5.60
2023-03-04T05:35:34.773Z,5.60
2023-03-04T05:38:03.394Z,5.60
2023-03-04T05:40:31.936Z,5.60
2023-03-04T05:43:00.810Z,5.60
2023-03-04T05:45:30.055Z,5.60
2023-03-04T05:47:58.807Z,5.60
2023-03-04T05:50:29.014Z,5.60
2023-03-04T05:52:57.671Z,5.50
2023-03-04T05:55:27.886Z,5.50
2023-03-04T05:57:56.539Z,5.50
2023-03-04T06:00:25.446Z,5.60
2023-03-04T06:02:54.096Z,5.60
2023-03-04T06:05:23.696Z,5.60
2023-03-04T06:07:53.956Z,5.60
2023-03-04T06:10:22.663Z,5.60
2023-03-04T06:12:51.232Z,5.60
2023-03-04T06:15:20.005Z,5.60
2023-03-04T06:17:48.592Z,5.60
2023-03-04T06:20:17.049Z,5.60
2023-03-04T06:22:45.753Z,5.60
2023-03-04T06:25:16.153Z,5.60
2023-03-04T06:27:44.780Z,5.60
2023-03-04T06:30:14.267Z,5.60
2023-03-04T06:32:44.486Z,5.60
2023-03-04T06:35:13.101Z,5.60
2023-03-04T06:37:41.800Z,5.60
2023-03-04T06:40:11.739Z,5.60
2023-03-04T06:42:42.518Z,5.60
2023-03-04T06:45:12.649Z,5.60
2023-03-04T06:47:41.224Z,5.60
2023-03-04T06:50:12.169Z,5.60
2023-03-04T06:52:41.005Z,5.60
2023-03-04T06:55:10.869Z,5.60
2023-03-04T06:57:39.353Z,5.60
2023-03-04T07:00:11.324Z,5.70
2023-03-04T07:02:39.915Z,5.70
2023-03-04T07:05:09.201Z,5.70
2023-03-04T07:07:37.966Z,5.70
2023-03-04T07:10:07.596Z,5.70
2023-03-04T07:12:36.509Z,5.70
2023-03-04T07:15:05.565Z,5.70
2023-03-04T07:17:38.279Z,5.70
2023-03-04T07:20:07.821Z,5.70
2023-03-04T07:22:36.199Z,5.60
2023-03-04T07:25:05.310Z,5.50
2023-03-04T07:27:33.913Z,5.50
2023-03-04T07:30:02.527Z,5.50
2023-03-04T07:32:31.216Z,5.50
2023-03-04T07:35:01.217Z,5.50
2023-03-04T07:37:29.720Z,5.50
2023-03-04T07:39:58.194Z,5.60
2023-03-04T07:42:26.813Z,5.60
2023-03-04T07:45:02.104Z,5.70
2023-03-04T07:47:30.580Z,5.70
2023-03-04T07:50:00.683Z,5.70
2023-03-04T07:52:29.141Z,5.60
2023-03-04T07:54:57.683Z,5.70
2023-03-04T07:57:26.117Z,5.80
2023-03-04T07:59:54.621Z,5.80
2023-03-04T08:02:23.483Z,5.80
2023-03-04T08:04:52.194Z,5.90
2023-03-04T08:07:22.360Z,6.10
2023-03-04T08:09:51.205Z,6.30
2023-03-04T08:12:20.208Z,6.30
2023-03-04T08:14:48.780Z,6.30
2023-03-04T08:17:17.368Z,6.50
2023-03-04T08:19:46.014Z,6.60
2023-03-04T08:22:14.497Z,6.70
2023-03-04T08:24:44.376Z,6.70
2023-03-04T08:27:12.967Z,6.60
2023-03-04T08:29:41.318Z,6.50
2023-03-04T08:32:10.271Z,6.50
2023-03-04T08:34:41.403Z,6.60
2023-03-04T08:37:09.945Z,6.60
2023-03-04T08:39:38.600Z,6.60
2023-03-04T08:42:08.680Z,6.70
2023-03-04T08:44:37.127Z,6.80
2023-03-04T08:47:09.347Z,6.90
2023-03-04T08:49:37.972Z,6.90
2023-03-04T08:52:06.891Z,6.70
2023-03-04T08:54:35.598Z,6.70
2023-03-04T08:57:04.635Z,6.80
2023-03-04T08:59:37.070Z,6.80
2023-03-04T09:02:06.804Z,6.80
2023-03-04T09:04:35.671Z,6.70
2023-03-04T09:07:04.440Z,6.50
2023-03-04T09:09:33.497Z,6.60
2023-03-04T09:12:06.043Z,6.70
2023-03-04T09:14:37.588Z,6.80
2023-03-04T09:17:07.422Z,6.90
2023-03-04T09:19:36.318Z,7.10
2023-03-04T09:22:04.956Z,7.20
2023-03-04T09:24:33.535Z,7.40
2023-03-04T09:27:02.098Z,7.20
2023-03-04T09:29:31.219Z,7.10
2023-03-04T09:32:02.032Z,7.40
2023-03-04T09:34:30.681Z,7.60
2023-03-04T09:36:59.278Z,7.60
2023-03-04T09:39:28.254Z,7.70
2023-03-04T09:41:59.400Z,7.80
2023-03-04T09:44:34.123Z,8.00
2023-03-04T09:47:07.517Z,7.80
2023-03-04T09:49:40.050Z,7.50
2023-03-04T09:52:23.036Z,7.40
2023-03-04T09:55:06.273Z,7.80
2023-03-04T09:57:48.353Z,8.10
2023-03-04T10:00:20.411Z,8.30
2023-03-04T10:03:06.678Z,8.20
2023-03-04T10:05:40.504Z,8.20
2023-03-04T10:08:32.559Z,8.40
2023-03-04T10:11:03.196Z,8.50
2023-03-04T10:13:37.674Z,8.20
2023-03-04T10:16:10.179Z,8.30
2023-03-04T10:27:10.745Z,8.70
2023-03-04T10:40:31.328Z,8.40
2023-03-04T11:01:56.597Z,9.20
2023-03-04T11:08:47.094Z,9.10
2023-03-04T12:46:42.734Z,8.50
2023-03-04T12:53:35.949Z,8.70
2023-03-04T12:56:07.935Z,8.60
2023-03-04T12:58:38.722Z,8.30
2023-03-04T13:01:16.152Z,8.30
2023-03-04T13:03:54.914Z,8.20
2023-03-04T13:06:35.648Z,8.10
2023-03-04T13:09:11.804Z,8.20
2023-03-04T13:11:53.274Z,8.20
2023-03-04T13:14:28.499Z,8.30
2023-03-04T13:16:59.014Z,8.20
2023-03-04T13:19:48.092Z,8.20
2023-03-04T13:22:42.398Z,8.10
2023-03-04T13:25:31.286Z,8.30
2023-03-04T13:28:25.738Z,8.50
2023-03-04T13:31:29.956Z,8.50
2023-03-04T13:34:00.975Z,8.50
2023-03-04T13:36:56.160Z,8.60
2023-03-04T13:39:35.048Z,8.70
2023-03-04T13:42:04.988Z,8.60
2023-03-04T13:44:37.397Z,8.60
2023-03-04T13:47:11.442Z,8.60
2023-03-04T13:49:40.082Z,8.60
2023-03-04T13:52:40.528Z,8.70
2023-03-04T13:55:37.045Z,8.70
2023-03-04T13:58:18.858Z,8.50
2023-03-04T14:00:52.184Z,8.40
2023-03-04T14:03:26.910Z,8.60
2023-03-04T14:06:18.072Z,8.70
2023-03-04T14:08:47.640Z,8.70
2023-03-04T14:11:25.617Z,8.70
2023-03-04T14:13:54.739Z,8.70
2023-03-04T14:16:25.355Z,8.60
2023-03-04T14:19:02.922Z,8.50
2023-03-04T14:21:32.841Z,8.40
2023-03-04T14:24:03.482Z,8.20
2023-03-04T14:31:03.607Z,8.30
2023-03-04T14:37:00.462Z,8.20
2023-03-04T14:43:08.415Z,8.20
2023-03-04T14:46:21.974Z,8.50
2023-03-04T14:49:23.965Z,8.80
2023-03-04T17:11:59.952Z,7.40
2023-03-04T17:14:35.663Z,7.40
2023-03-04T17:17:19.549Z,7.40
2023-03-04T17:19:57.676Z,7.40
2023-03-04T17:22:31.611Z,7.40
2023-03-04T17:25:07.616Z,7.40
2023-03-04T17:27:52.466Z,7.40
2023-03-04T17:30:29.784Z,7.40
2023-03-04T17:33:20.164Z,7.40
2023-03-04T17:39:53.384Z,7.30
2023-03-04T17:42:41.641Z,7.30
2023-03-04T17:45:18.211Z,7.30
2023-03-04T17:48:05.810Z,7.30
2023-03-04T17:50:58.164Z,7.30
2023-03-04T17:57:25.231Z,7.30
2023-03-04T18:00:43.096Z,7.20
2023-03-04T18:06:57.254Z,7.20
2023-03-04T18:13:20.748Z,7.20
2023-03-04T18:26:12.384Z,7.10
2023-03-04T18:29:16.097Z,7.10
2023-03-04T18:35:40.736Z,7.00
2023-03-04T18:39:20.916Z,7.00
2023-03-04T18:55:32.266Z,6.90
2023-03-04T18:58:07.047Z,6.90
2023-03-04T19:00:43.278Z,6.90
2023-03-04T19:03:22.012Z,6.90
2023-03-04T19:05:53.066Z,6.90
2023-03-04T19:08:32.624Z,6.90
2023-03-04T19:11:13.389Z,6.90
2023-03-04T19:13:51.493Z,6.90
2023-03-04T19:16:22.655Z,6.90
2023-03-04T19:18:56.652Z,6.90
2023-03-04T19:21:26.288Z,6.90
2023-03-04T19:23:58.776Z,6.90
2023-03-04T19:26:30.623Z,6.90
2023-03-04T19:29:00.978Z,6.90
2023-03-04T19:31:31.053Z,6.90
2023-03-04T19:34:01.616Z,6.90
2023-03-04T19:36:32.771Z,6.90
2023-03-04T19:39:02.458Z,6.90
2023-03-04T19:41:33.718Z,6.90
2023-03-04T19:44:06.230Z,6.90
2023-03-04T19:46:36.053Z,6.90
2023-03-04T19:49:06.548Z,6.80
2023-03-04T19:51:36.864Z,6.80
2023-03-04T19:54:07.241Z,6.70
2023-03-04T19:56:39.191Z,6.80
2023-03-04T19:59:08.710Z,6.70
2023-03-04T20:01:39.772Z,6.70
2023-03-04T20:04:12.125Z,6.70
2023-03-04T20:06:43.619Z,6.80
2023-03-04T20:09:14.475Z,6.70
2023-03-04T20:11:57.221Z,6.80
2023-03-04T20:14:28.103Z,6.80
2023-03-04T20:17:01.179Z,6.70
2023-03-04T20:19:30.735Z,6.70
2023-03-04T20:22:03.411Z,6.70
2023-03-04T20:24:32.982Z,6.70
2023-03-04T20:27:05.136Z,6.70
2023-03-04T20:29:34.484Z,6.50
2023-03-04T20:32:04.266Z,6.40
2023-03-04T20:34:34.521Z,6.30
2023-03-04T20:37:04.234Z,6.30
2023-03-04T20:39:36.353Z,6.30
2023-03-04T20:42:07.850Z,6.30
2023-03-04T20:44:37.725Z,6.30
2023-03-04T20:47:07.664Z,6.30
2023-03-04T20:49:36.914Z,6.20
2023-03-04T20:52:07.901Z,6.20
2023-03-04T20:54:39.018Z,6.20
2023-03-04T20:57:11.245Z,6.20
2023-03-04T20:59:41.516Z,6.20
2023-03-04T21:02:16.052Z,6.20
2023-03-04T21:04:45.113Z,6.20
2023-03-04T21:07:14.594Z,6.10
2023-03-04T21:09:47.384Z,6.10
2023-03-04T21:12:17.861Z,6.00
2023-03-04T21:14:47.725Z,6.00
2023-03-04T21:17:17.501Z,6.00
2023-03-04T21:19:46.982Z,5.90
2023-03-04T21:22:24.698Z,5.90
2023-03-04T21:24:53.884Z,5.90
2023-03-04T21:27:27.362Z,5.90
2023-03-04T21:29:56.570Z,5.90
2023-03-04T21:32:27.658Z,5.90
2023-03-04T21:34:57.397Z,5.90
2023-03-04T21:37:28.039Z,5.90
2023-03-04T21:39:58.427Z,5.90
2023-03-04T21:42:29.983Z,5.90
2023-03-04T21:45:04.478Z,5.80
2023-03-04T21:47:35.527Z,5.80
2023-03-04T21:50:04.955Z,5.80
2023-03-04T21:52:34.744Z,5.70
2023-03-04T21:55:04.816Z,5.70
2023-03-04T21:57:36.421Z,5.70
2023-03-04T22:00:06.774Z,5.60
2023-03-04T22:02:41.461Z,5.60
2023-03-04T22:05:11.616Z,5.60
2023-03-04T22:07:40.858Z,5.60
2023-03-04T22:10:11.416Z,5.60
2023-03-04T22:12:42.575Z,5.60
2023-03-04T22:15:12.935Z,5.70
2023-03-04T22:17:46.120Z,5.60
2023-03-04T22:20:17.584Z,5.60
2023-03-04T22:22:46.748Z,5.60
2023-03-04T22:25:16.423Z,5.50
2023-03-04T22:27:47.471Z,5.50
2023-03-04T22:30:20.092Z,5.50
2023-03-04T22:32:53.616Z,5.50
2023-03-04T22:35:22.567Z,5.40
2023-03-04T22:37:52.166Z,5.40
2023-03-04T22:40:22.070Z,5.40
2023-03-04T22:42:53.084Z,5.40
2023-03-04T22:45:22.733Z,5.40
2023-03-04T22:47:55.144Z,5.40
2023-03-04T22:50:25.000Z,5.30
2023-03-04T22:52:58.787Z,5.30
2023-03-04T22:55:28.008Z,5.30
2023-03-04T22:58:00.403Z,5.30
2023-03-04T23:00:32.025Z,5.20
2023-03-04T23:03:01.321Z,5.20
2023-03-04T23:05:30.721Z,5.20
2023-03-04T23:07:59.951Z,5.20
2023-03-04T23:10:29.722Z,5.20
2023-03-04T23:13:00.517Z,5.30
2023-03-04T23:15:30.110Z,5.30
2023-03-04T23:17:59.818Z,5.30
2023-03-04T23:20:29.077Z,5.30
2023-03-04T23:23:00.141Z,5.20
2023-03-04T23:25:29.505Z,5.20
2023-03-04T23:28:00.794Z,5.20
2023-03-04T23:30:30.479Z,5.20
2023-03-04T23:32:59.972Z,5.30
2023-03-04T23:35:29.645Z,5.20
2023-03-04T23:38:00.156Z,5.30
2023-03-04T23:40:32.106Z,5.20
2023-03-04T23:43:05.459Z,5.20
2023-03-04T23:45:35.166Z,5.20
2023-03-04T23:48:04.680Z,5.20
2023-03-04T23:50:35.567Z,5.20
2023-03-04T23:53:05.686Z,5.20
2023-03-04T23:55:37.537Z,5.10
2023-03-04T23:58:08.466Z,5.10
